EISG/SXL METAR and TAF weather

Enter ICAO airport designator
Station Type Date Time Source
EISG METAR 2019/02/21 10:00 UTC NOAA

EISG 211000Z 14013KT 110V180 9999 OVC019 12/10 Q1014


Station Type Date Time Source
EISG Decoded METAR 2019/02/21 10:00 UTC NOAA

Station name not available
Feb 21, 2019 - 05:00 AM EST / 2019.02.21 1000 UTC
Wind: from the SE (140 degrees) at 15 MPH (13 KT) (direction variable):0
Visibility: greater than 7 mile(s):0
Sky conditions: overcast
Temperature: 53 F (12 C)
Dew Point: 50 F (10 C)
Relative Humidity: 87%
Pressure (altimeter): 29.94 in. Hg (1014 hPa)
ob: EISG 211000Z 14013KT 110V180 9999 OVC019 12/10 Q1014
cycle: 10

Station Type Date Time Source
EISG TAF UTC NOAA

Error!


Example: see airport list